createdAt,value
2023-03-19T00:02:27.189Z,11.20
2023-03-19T00:04:57.897Z,11.20
2023-03-19T00:07:26.096Z,11.20
2023-03-19T00:09:54.051Z,11.20
2023-03-19T00:12:23.262Z,11.20
2023-03-19T00:14:52.596Z,11.10
2023-03-19T00:17:23.270Z,11.10
2023-03-19T00:19:51.355Z,11.10
2023-03-19T00:22:19.638Z,11.10
2023-03-19T00:24:47.576Z,11.00
2023-03-19T00:27:15.548Z,11.00
2023-03-19T00:29:45.720Z,11.00
2023-03-19T00:32:15.644Z,11.00
2023-03-19T00:34:44.046Z,10.90
2023-03-19T00:37:13.554Z,10.90
2023-03-19T00:39:41.936Z,10.90
2023-03-19T00:42:10.230Z,10.80
2023-03-19T00:44:38.324Z,10.80
2023-03-19T00:47:07.311Z,10.80
2023-03-19T00:49:36.851Z,10.80
2023-03-19T00:52:04.852Z,10.80
2023-03-19T00:54:33.109Z,10.70
2023-03-19T00:57:01.418Z,10.70
2023-03-19T00:59:29.383Z,10.70
2023-03-19T01:01:57.433Z,10.60
2023-03-19T01:04:25.649Z,10.60
2023-03-19T01:06:55.599Z,10.60
2023-03-19T01:09:23.584Z,10.50
2023-03-19T01:11:51.531Z,10.60
2023-03-19T01:14:19.483Z,10.50
2023-03-19T01:16:47.448Z,10.50
2023-03-19T01:19:16.424Z,10.50
2023-03-19T01:21:46.267Z,10.50
2023-03-19T01:24:16.313Z,10.50
2023-03-19T01:26:44.751Z,10.60
2023-03-19T01:29:12.746Z,10.60
2023-03-19T01:31:40.755Z,10.60
2023-03-19T01:34:08.729Z,10.60
2023-03-19T01:36:36.697Z,10.60
2023-03-19T01:39:10.609Z,10.60
2023-03-19T01:41:39.995Z,10.60
2023-03-19T01:44:22.794Z,10.60
2023-03-19T01:46:51.053Z,10.60
2023-03-19T01:49:19.866Z,10.60
2023-03-19T01:51:49.900Z,10.60
2023-03-19T01:54:20.666Z,10.60
2023-03-19T01:56:52.534Z,10.60
2023-03-19T01:59:22.199Z,10.60
2023-03-19T02:01:52.182Z,10.70
2023-03-19T02:04:20.711Z,10.60
2023-03-19T02:06:49.908Z,10.70
2023-03-19T02:09:18.713Z,10.70
2023-03-19T02:11:47.178Z,10.70
2023-03-19T02:14:16.866Z,10.60
2023-03-19T02:16:45.055Z,10.70
2023-03-19T02:19:16.176Z,10.70
2023-03-19T02:21:44.187Z,10.70
2023-03-19T02:24:14.123Z,10.70
2023-03-19T02:26:44.237Z,10.70
2023-03-19T02:29:12.201Z,10.70
2023-03-19T02:31:42.112Z,10.70
2023-03-19T02:34:33.314Z,10.70
2023-03-19T02:37:03.534Z,10.70
2023-03-19T02:39:33.551Z,10.70
2023-03-19T02:42:03.365Z,10.70
2023-03-19T02:44:31.434Z,10.70
2023-03-19T02:46:59.594Z,10.70
2023-03-19T02:49:28.135Z,10.70
2023-03-19T02:51:56.153Z,10.60
2023-03-19T02:54:24.269Z,10.70
2023-03-19T02:56:52.827Z,10.60
2023-03-19T02:59:22.176Z,10.60
2023-03-19T03:01:50.878Z,10.50
2023-03-19T03:04:18.941Z,10.50
2023-03-19T03:06:47.001Z,10.50
2023-03-19T03:09:15.263Z,10.50
2023-03-19T03:11:43.970Z,10.50
2023-03-19T03:14:12.047Z,10.50
2023-03-19T03:16:41.416Z,10.40
2023-03-19T03:19:09.415Z,10.50
2023-03-19T03:21:37.390Z,10.40
2023-03-19T03:24:05.500Z,10.40
2023-03-19T03:26:34.768Z,10.40
2023-03-19T03:29:05.923Z,10.40
2023-03-19T03:31:34.724Z,10.50
2023-03-19T03:34:04.494Z,10.50
2023-03-19T03:36:32.472Z,10.50
2023-03-19T03:39:00.799Z,10.50
2023-03-19T03:41:28.755Z,10.50
2023-03-19T03:43:57.613Z,10.50
2023-03-19T03:46:25.712Z,10.40
2023-03-19T03:48:53.697Z,10.50
2023-03-19T03:51:23.085Z,10.40
2023-03-19T03:53:51.117Z,10.40
2023-03-19T03:56:19.097Z,10.40
2023-03-19T03:58:47.585Z,10.50
2023-03-19T04:01:16.210Z,10.50
2023-03-19T04:03:44.500Z,10.50
2023-03-19T04:06:15.041Z,10.50
2023-03-19T04:08:44.386Z,10.50
2023-03-19T04:11:12.566Z,10.50
2023-03-19T04:13:40.530Z,10.50
2023-03-19T04:16:09.578Z,10.50
2023-03-19T04:18:37.936Z,10.40
2023-03-19T04:21:06.413Z,10.50
2023-03-19T04:23:34.430Z,10.40
2023-03-19T04:26:05.205Z,10.50
2023-03-19T04:28:33.215Z,10.40
2023-03-19T04:31:01.371Z,10.40
2023-03-19T04:33:29.849Z,10.40
2023-03-19T04:35:57.868Z,10.40
2023-03-19T04:38:27.638Z,10.40
2023-03-19T04:40:57.815Z,10.40
2023-03-19T04:43:27.397Z,10.30
2023-03-19T04:45:55.805Z,10.30
2023-03-19T04:48:23.810Z,10.30
2023-03-19T04:50:53.286Z,10.30
2023-03-19T04:53:23.214Z,10.30
2023-03-19T04:55:51.372Z,10.40
2023-03-19T04:58:19.656Z,10.30
2023-03-19T05:00:49.200Z,10.30
2023-03-19T05:03:17.208Z,10.30
2023-03-19T05:05:45.576Z,10.30
2023-03-19T05:08:13.756Z,10.30
2023-03-19T05:10:41.711Z,10.30
2023-03-19T05:13:09.700Z,10.30
2023-03-19T05:15:37.668Z,10.30
2023-03-19T05:18:07.986Z,10.30
2023-03-19T05:20:36.221Z,10.30
2023-03-19T05:23:04.330Z,10.30
2023-03-19T05:25:32.615Z,10.40
2023-03-19T05:28:00.597Z,10.40
2023-03-19T05:30:28.605Z,10.30
2023-03-19T05:32:59.709Z,10.30
2023-03-19T05:35:30.495Z,10.30
2023-03-19T05:37:58.717Z,10.30
2023-03-19T05:40:26.998Z,10.30
2023-03-19T05:42:54.946Z,10.30
2023-03-19T05:45:22.887Z,10.30
2023-03-19T05:47:51.115Z,10.30
2023-03-19T05:50:19.374Z,10.30
2023-03-19T05:52:48.717Z,10.30
2023-03-19T05:55:19.791Z,10.30
2023-03-19T05:57:49.811Z,10.30
2023-03-19T06:00:18.538Z,10.30
2023-03-19T06:02:46.945Z,10.30
2023-03-19T06:05:14.984Z,10.30
2023-03-19T06:07:43.342Z,10.30
2023-03-19T06:10:13.066Z,10.30
2023-03-19T06:12:41.183Z,10.40
2023-03-19T06:15:10.191Z,10.40
2023-03-19T06:17:38.349Z,10.40
2023-03-19T06:20:06.931Z,10.40
2023-03-19T06:22:37.652Z,10.40
2023-03-19T06:25:06.674Z,10.40
2023-03-19T06:27:36.070Z,10.40
2023-03-19T06:30:05.589Z,10.40
2023-03-19T06:32:33.636Z,10.40
2023-03-19T06:35:01.804Z,10.40
2023-03-19T06:37:33.264Z,10.40
2023-03-19T06:40:01.220Z,10.40
2023-03-19T06:42:31.768Z,10.40
2023-03-19T06:45:03.101Z,10.40
2023-03-19T06:47:31.105Z,10.40
2023-03-19T06:49:59.725Z,10.50
2023-03-19T06:52:27.698Z,10.40
2023-03-19T06:54:55.814Z,10.40
2023-03-19T06:57:23.772Z,10.40
2023-03-19T06:59:51.801Z,10.40
2023-03-19T07:02:21.170Z,10.40
2023-03-19T07:04:49.266Z,10.50
2023-03-19T07:07:17.254Z,10.40
2023-03-19T07:09:45.449Z,10.40
2023-03-19T07:12:13.583Z,10.50
2023-03-19T07:14:41.651Z,10.50
2023-03-19T07:17:10.453Z,10.50
2023-03-19T07:19:42.425Z,10.50
2023-03-19T07:22:16.147Z,10.50
2023-03-19T07:24:44.178Z,10.40
2023-03-19T07:27:12.442Z,10.50
2023-03-19T07:29:40.629Z,10.50
2023-03-19T07:32:10.366Z,10.50
2023-03-19T07:34:38.311Z,10.50
2023-03-19T07:37:08.025Z,10.50
2023-03-19T07:39:36.441Z,10.50
2023-03-19T07:42:04.746Z,10.50
2023-03-19T07:44:32.721Z,10.60
2023-03-19T07:47:00.817Z,10.60
2023-03-19T07:49:28.820Z,10.60
2023-03-19T07:51:56.783Z,10.60
2023-03-19T07:54:26.241Z,10.70
2023-03-19T07:56:56.874Z,10.70
2023-03-19T07:59:24.849Z,10.80
2023-03-19T08:01:52.844Z,10.80
2023-03-19T08:04:21.327Z,10.80
2023-03-19T08:06:49.351Z,10.90
2023-03-19T08:09:17.325Z,10.90
2023-03-19T08:11:46.626Z,10.90
2023-03-19T08:14:19.228Z,11.00
2023-03-19T08:16:47.217Z,11.00
2023-03-19T08:19:15.291Z,11.10
2023-03-19T08:21:46.628Z,11.20
2023-03-19T08:24:14.572Z,11.30
2023-03-19T08:26:42.670Z,11.30
2023-03-19T08:29:12.299Z,11.40
2023-03-19T08:31:40.377Z,11.50
2023-03-19T08:34:10.340Z,11.50
2023-03-19T08:36:38.373Z,11.60
2023-03-19T08:39:06.433Z,11.60
2023-03-19T08:41:37.908Z,11.60
2023-03-19T08:44:08.374Z,11.60
2023-03-19T08:46:38.132Z,11.70
2023-03-19T08:49:06.399Z,11.70
2023-03-19T08:51:34.420Z,11.70
2023-03-19T08:54:02.406Z,11.70
2023-03-19T08:56:30.342Z,11.80
2023-03-19T08:58:58.460Z,11.80
2023-03-19T09:01:29.094Z,11.80
2023-03-19T09:03:58.467Z,11.80
2023-03-19T09:06:26.460Z,11.90
2023-03-19T09:08:54.422Z,11.90
2023-03-19T09:11:25.410Z,11.90
2023-03-19T09:13:53.419Z,12.00
2023-03-19T09:16:26.005Z,12.00
2023-03-19T09:18:54.033Z,12.00
2023-03-19T09:21:23.382Z,12.00
2023-03-19T09:23:52.784Z,12.00
2023-03-19T09:26:21.968Z,12.10
2023-03-19T09:28:49.999Z,12.10
2023-03-19T09:31:18.187Z,12.10
2023-03-19T09:33:46.323Z,12.20
2023-03-19T09:36:17.142Z,12.20
2023-03-19T09:38:46.555Z,12.30
2023-03-19T09:41:15.752Z,12.30
2023-03-19T09:43:53.446Z,12.30
2023-03-19T09:46:23.663Z,12.40
2023-03-19T09:48:56.023Z,12.40
2023-03-19T09:51:27.504Z,12.40
2023-03-19T09:53:57.832Z,12.40
2023-03-19T09:56:25.981Z,12.40
2023-03-19T09:58:54.021Z,12.40
2023-03-19T10:01:26.592Z,12.50
2023-03-19T10:04:05.531Z,12.50
2023-03-19T10:06:35.584Z,12.50
2023-03-19T10:09:27.554Z,12.40
2023-03-19T10:12:03.633Z,12.50
2023-03-19T10:14:47.810Z,12.50
2023-03-19T10:17:18.063Z,12.50
2023-03-19T10:19:47.849Z,12.50
2023-03-19T10:22:17.364Z,12.50
2023-03-19T10:24:45.689Z,12.50
2023-03-19T10:27:16.791Z,12.50
2023-03-19T10:29:49.392Z,12.60
2023-03-19T10:32:19.624Z,12.50
2023-03-19T10:34:50.360Z,12.60
2023-03-19T10:37:20.544Z,12.60
2023-03-19T10:39:49.293Z,12.60
2023-03-19T10:42:27.426Z,12.60
2023-03-19T10:45:00.322Z,12.60
2023-03-19T10:47:28.373Z,12.50
2023-03-19T10:49:57.255Z,12.50
2023-03-19T10:52:28.224Z,12.50
2023-03-19T10:54:57.369Z,12.50
2023-03-19T10:57:31.843Z,12.50
2023-03-19T11:00:04.122Z,12.50
2023-03-19T11:02:32.482Z,12.40
2023-03-19T11:05:07.765Z,12.40
2023-03-19T11:07:37.118Z,12.50
2023-03-19T11:10:05.446Z,12.50
2023-03-19T11:12:37.349Z,12.50
2023-03-19T11:15:16.049Z,12.50
2023-03-19T11:17:48.093Z,12.60
2023-03-19T11:20:21.970Z,12.70
2023-03-19T11:22:52.807Z,12.70
2023-03-19T11:25:25.079Z,12.70
2023-03-19T11:28:01.040Z,12.70
2023-03-19T11:30:32.757Z,12.70
2023-03-19T11:33:13.895Z,12.80
2023-03-19T11:35:43.219Z,12.80
2023-03-19T11:38:18.615Z,12.80
2023-03-19T11:40:48.960Z,12.90
2023-03-19T11:43:29.288Z,12.90
2023-03-19T11:46:01.561Z,13.00
2023-03-19T11:48:36.729Z,13.00
2023-03-19T11:51:11.161Z,13.10
2023-03-19T11:53:43.259Z,13.10
2023-03-19T11:56:16.164Z,13.20
2023-03-19T11:59:05.962Z,13.30
2023-03-19T12:01:51.054Z,13.40
2023-03-19T12:04:28.701Z,13.50
2023-03-19T12:07:02.385Z,13.60
2023-03-19T12:09:36.403Z,13.70
2023-03-19T12:12:11.469Z,13.80
2023-03-19T12:14:51.553Z,13.90
2023-03-19T12:17:26.046Z,13.90
2023-03-19T12:20:04.976Z,13.90
2023-03-19T12:22:41.037Z,13.90
2023-03-19T12:25:20.737Z,14.00
2023-03-19T12:27:52.752Z,14.00
2023-03-19T12:30:30.800Z,14.00
2023-03-19T12:33:08.393Z,14.00
2023-03-19T12:35:38.355Z,14.00
2023-03-19T12:38:11.246Z,14.10
2023-03-19T12:40:43.027Z,14.10
2023-03-19T12:43:15.451Z,14.20
2023-03-19T12:45:46.305Z,14.30
2023-03-19T12:48:16.271Z,14.30
2023-03-19T12:50:46.874Z,14.40
2023-03-19T12:53:21.240Z,14.50
2023-03-19T12:55:50.832Z,14.70
2023-03-19T12:58:21.823Z,14.70
2023-03-19T13:00:54.131Z,14.90
2023-03-19T13:03:25.391Z,15.00
2023-03-19T13:05:57.279Z,15.00
2023-03-19T13:08:28.483Z,15.00
2023-03-19T13:10:57.316Z,15.00
2023-03-19T13:13:38.652Z,14.90
2023-03-19T13:16:12.157Z,14.80
2023-03-19T13:18:44.137Z,14.80
2023-03-19T13:21:18.577Z,14.80
2023-03-19T13:23:47.798Z,14.90
2023-03-19T13:26:16.837Z,15.10
2023-03-19T13:28:55.713Z,15.50
2023-03-19T13:31:27.011Z,15.90
2023-03-19T13:34:01.798Z,16.20
2023-03-19T13:36:31.212Z,16.50
2023-03-19T13:39:00.346Z,16.60
2023-03-19T13:41:48.889Z,16.60
2023-03-19T13:44:25.576Z,16.80
2023-03-19T13:46:55.091Z,16.90
2023-03-19T13:49:30.305Z,16.80
2023-03-19T13:52:03.993Z,16.70
2023-03-19T13:54:37.061Z,16.40
2023-03-19T13:57:22.567Z,16.20
2023-03-19T13:59:51.685Z,16.00
2023-03-19T14:02:38.292Z,15.90
2023-03-19T14:05:10.800Z,15.80
2023-03-19T14:07:40.292Z,15.70
2023-03-19T14:10:09.603Z,16.10
2023-03-19T14:12:38.317Z,16.60
2023-03-19T14:15:18.134Z,17.20
2023-03-19T14:17:47.176Z,17.60
2023-03-19T14:20:26.689Z,17.90
2023-03-19T14:23:11.962Z,18.50
2023-03-19T14:26:01.524Z,19.00
2023-03-19T14:28:34.888Z,19.30
2023-03-19T14:31:03.683Z,19.60
2023-03-19T14:33:36.080Z,20.00
2023-03-19T14:36:06.370Z,20.30
2023-03-19T14:38:37.832Z,20.60
2023-03-19T14:41:06.289Z,20.80
2023-03-19T14:43:43.736Z,20.80
2023-03-19T14:46:20.843Z,20.20
2023-03-19T14:49:08.460Z,19.80
2023-03-19T14:51:55.475Z,20.00
2023-03-19T14:54:29.299Z,20.50
2023-03-19T14:56:57.476Z,20.60
2023-03-19T14:59:25.569Z,20.80
2023-03-19T15:01:54.542Z,20.30
2023-03-19T15:04:24.023Z,20.00
2023-03-19T15:06:55.874Z,19.70
2023-03-19T15:09:29.733Z,19.00
2023-03-19T15:12:07.801Z,18.50
2023-03-19T15:14:43.684Z,18.30
2023-03-19T15:17:17.044Z,18.30
2023-03-19T15:19:45.079Z,18.50
2023-03-19T15:22:16.625Z,18.70
2023-03-19T15:24:44.610Z,18.50
2023-03-19T15:27:25.602Z,18.00
2023-03-19T15:30:03.205Z,17.60
2023-03-19T15:33:03.001Z,17.40
2023-03-19T15:35:32.555Z,17.10
2023-03-19T15:38:08.165Z,16.80
2023-03-19T15:40:39.763Z,16.80
2023-03-19T15:43:10.775Z,16.80
2023-03-19T15:45:39.156Z,16.70
2023-03-19T15:48:10.790Z,16.90
2023-03-19T15:50:42.552Z,17.00
2023-03-19T15:53:13.253Z,17.20
2023-03-19T15:55:41.322Z,17.10
2023-03-19T15:58:10.375Z,17.10
2023-03-19T16:00:41.200Z,17.00
2023-03-19T16:03:12.298Z,16.90
2023-03-19T16:05:40.638Z,16.70
2023-03-19T16:08:18.279Z,16.60
2023-03-19T16:10:47.471Z,16.50
2023-03-19T16:13:29.419Z,16.50
2023-03-19T16:16:01.569Z,16.50
2023-03-19T16:18:42.154Z,16.40
2023-03-19T16:21:11.287Z,16.30
2023-03-19T16:23:44.369Z,16.30
2023-03-19T16:26:17.894Z,16.20
2023-03-19T16:28:49.907Z,16.20
2023-03-19T16:31:22.339Z,16.20
2023-03-19T16:33:51.941Z,16.30
2023-03-19T16:36:21.772Z,16.40
2023-03-19T16:38:58.291Z,16.50
2023-03-19T16:41:33.738Z,16.50
2023-03-19T16:44:11.946Z,16.40
2023-03-19T16:46:40.213Z,16.40
2023-03-19T16:49:08.355Z,16.20
2023-03-19T16:51:38.405Z,16.00
2023-03-19T16:54:07.829Z,15.90
2023-03-19T16:56:36.438Z,15.90
2023-03-19T16:59:04.681Z,15.80
2023-03-19T17:01:32.750Z,15.80
2023-03-19T17:04:01.639Z,15.70
2023-03-19T17:06:34.311Z,15.60
2023-03-19T17:09:02.502Z,15.50
2023-03-19T17:11:36.008Z,15.40
2023-03-19T17:14:06.213Z,15.30
2023-03-19T17:16:34.732Z,15.30
2023-03-19T17:19:04.726Z,15.20
2023-03-19T17:21:33.658Z,15.20
2023-03-19T17:24:03.871Z,15.20
2023-03-19T17:26:33.617Z,15.10
2023-03-19T17:29:01.597Z,15.00
2023-03-19T17:31:30.338Z,14.90
2023-03-19T17:34:00.974Z,14.80
2023-03-19T17:36:29.016Z,14.70
2023-03-19T17:38:57.124Z,14.50
2023-03-19T17:41:28.550Z,14.50
2023-03-19T17:43:57.999Z,14.40
2023-03-19T17:46:27.457Z,14.30
2023-03-19T17:48:56.463Z,14.30
2023-03-19T17:51:24.974Z,14.20
2023-03-19T17:53:54.181Z,14.10
2023-03-19T17:56:23.115Z,14.00
2023-03-19T17:58:51.119Z,14.00
2023-03-19T18:01:22.050Z,13.90
2023-03-19T18:03:50.916Z,13.80
2023-03-19T18:06:20.190Z,13.80
2023-03-19T18:08:48.693Z,13.80
2023-03-19T18:11:16.692Z,13.80
2023-03-19T18:13:44.736Z,13.70
2023-03-19T18:16:16.660Z,13.70
2023-03-19T18:18:46.058Z,13.60
2023-03-19T18:21:14.449Z,13.50
2023-03-19T18:23:42.643Z,13.40
2023-03-19T18:26:11.765Z,13.40
2023-03-19T18:28:39.896Z,13.30
2023-03-19T18:31:12.818Z,13.20
2023-03-19T18:33:40.873Z,13.00
2023-03-19T18:36:10.476Z,12.90
2023-03-19T18:38:38.494Z,12.70
2023-03-19T18:41:06.509Z,12.60
2023-03-19T18:43:34.469Z,12.50
2023-03-19T18:46:07.149Z,12.40
2023-03-19T18:48:35.419Z,12.30
2023-03-19T18:51:03.576Z,12.40
2023-03-19T18:53:32.996Z,12.20
2023-03-19T18:56:03.886Z,12.10
2023-03-19T18:58:31.829Z,12.00
2023-03-19T19:01:01.446Z,11.90
2023-03-19T19:03:32.788Z,11.80
2023-03-19T19:06:01.183Z,11.70
2023-03-19T19:08:29.830Z,11.70
2023-03-19T19:11:03.301Z,11.50
2023-03-19T19:13:33.915Z,11.50
2023-03-19T19:16:05.570Z,11.40
2023-03-19T19:18:33.757Z,11.30
2023-03-19T19:21:02.112Z,11.30
2023-03-19T19:23:30.490Z,11.10
2023-03-19T19:25:59.864Z,11.00
2023-03-19T19:28:30.563Z,10.90
2023-03-19T19:30:59.457Z,10.80
2023-03-19T19:33:28.984Z,10.90
2023-03-19T19:36:00.105Z,10.80
2023-03-19T19:38:30.243Z,10.70
2023-03-19T19:41:00.360Z,10.60
2023-03-19T19:43:31.417Z,10.60
2023-03-19T19:45:59.922Z,10.60
2023-03-19T19:48:28.933Z,10.60
2023-03-19T19:50:57.286Z,10.50
2023-03-19T19:53:26.168Z,10.50
2023-03-19T19:55:58.022Z,10.50
2023-03-19T19:58:32.835Z,10.50
2023-03-19T20:01:04.372Z,10.60
2023-03-19T20:03:33.711Z,10.50
2023-03-19T20:06:02.247Z,10.50
2023-03-19T20:08:30.321Z,10.50
2023-03-19T20:10:58.401Z,10.50
2023-03-19T20:13:27.633Z,10.50
2023-03-19T20:15:58.058Z,10.50
2023-03-19T20:18:30.793Z,10.50
2023-03-19T20:21:01.138Z,10.50
2023-03-19T20:23:30.794Z,10.50
2023-03-19T20:26:01.235Z,10.50
2023-03-19T20:28:32.501Z,10.40
2023-03-19T20:31:02.733Z,10.50
2023-03-19T20:33:32.406Z,10.40
2023-03-19T20:36:00.625Z,10.40
2023-03-19T20:38:29.423Z,10.40
2023-03-19T20:40:58.930Z,10.40
2023-03-19T20:43:30.887Z,10.40
2023-03-19T20:45:59.489Z,10.50
2023-03-19T20:48:29.144Z,10.50
2023-03-19T20:50:57.172Z,10.50
2023-03-19T20:53:25.133Z,10.60
2023-03-19T20:55:53.819Z,10.60
2023-03-19T20:58:24.326Z,10.60
2023-03-19T21:00:53.721Z,10.60
2023-03-19T21:03:23.478Z,10.60
2023-03-19T21:05:55.326Z,10.60
2023-03-19T21:08:28.137Z,10.60
2023-03-19T21:10:56.096Z,10.60
2023-03-19T21:13:24.098Z,10.60
2023-03-19T21:15:53.908Z,10.60
2023-03-19T21:18:21.985Z,10.50
2023-03-19T21:20:53.848Z,10.50
2023-03-19T21:23:26.297Z,10.50
2023-03-19T21:25:54.593Z,10.50
2023-03-19T21:28:24.636Z,10.50
2023-03-19T21:30:52.981Z,10.50
2023-03-19T21:33:25.402Z,10.50
2023-03-19T21:35:53.938Z,10.50
2023-03-19T21:38:23.444Z,10.50
2023-03-19T21:40:51.715Z,10.50
2023-03-19T21:43:22.122Z,10.50
2023-03-19T21:45:51.508Z,10.50
2023-03-19T21:48:24.278Z,10.50
2023-03-19T21:50:52.804Z,10.50
2023-03-19T21:53:21.189Z,10.50
2023-03-19T21:55:51.653Z,10.50
2023-03-19T21:58:21.527Z,10.50
2023-03-19T22:00:51.305Z,10.50
2023-03-19T22:03:23.020Z,10.50
2023-03-19T22:05:51.644Z,10.50
2023-03-19T22:08:20.416Z,10.50
2023-03-19T22:10:53.678Z,10.50
2023-03-19T22:13:24.288Z,10.50
2023-03-19T22:15:56.927Z,10.50
2023-03-19T22:18:28.153Z,10.50
2023-03-19T22:20:56.178Z,10.50
2023-03-19T22:23:24.129Z,10.50
2023-03-19T22:25:52.873Z,10.50
2023-03-19T22:28:24.077Z,10.50
2023-03-19T22:30:53.554Z,10.40
2023-03-19T22:33:22.301Z,10.40
2023-03-19T22:35:50.804Z,10.40
2023-03-19T22:38:19.543Z,10.40
2023-03-19T22:40:48.447Z,10.30
2023-03-19T22:43:20.942Z,10.30
2023-03-19T22:45:51.860Z,10.30
2023-03-19T22:48:24.447Z,10.30
2023-03-19T22:50:52.534Z,10.30
2023-03-19T22:53:22.092Z,10.30
2023-03-19T22:55:51.298Z,10.20
2023-03-19T22:58:19.247Z,10.10
2023-03-19T23:00:47.414Z,10.10
2023-03-19T23:03:17.999Z,10.10
2023-03-19T23:05:49.730Z,10.10
2023-03-19T23:08:20.974Z,10.00
2023-03-19T23:10:48.976Z,10.00
2023-03-19T23:13:17.261Z,10.00
2023-03-19T23:15:45.465Z,9.90
2023-03-19T23:18:17.353Z,9.90
2023-03-19T23:20:46.382Z,9.80
2023-03-19T23:23:16.409Z,9.80
2023-03-19T23:25:44.762Z,9.80
2023-03-19T23:28:18.640Z,9.80
2023-03-19T23:30:46.732Z,9.70
2023-03-19T23:33:15.808Z,9.70
2023-03-19T23:35:44.874Z,9.70
2023-03-19T23:38:13.196Z,9.60
2023-03-19T23:40:44.022Z,9.60
2023-03-19T23:43:17.302Z,9.60
2023-03-19T23:45:46.770Z,11.60
2023-03-19T23:48:16.238Z,9.50
2023-03-19T23:50:44.734Z,9.50
2023-03-19T23:53:18.622Z,9.50
2023-03-19T23:55:49.103Z,9.50
2023-03-19T23:58:17.995Z,9.50
